Time;durP1;ratioP1;P1;durP2;ratioP2;P2;SDS_P1;SDS_P2;PMS_P1;PMS_P2;Temp;Humidity;BMP_temperature;BMP_pressure;BME280_temperature;BME280_humidity;BME280_pressure;Samples;Min_cycle;Max_cycle;Signal;HPM_P1;HPM_P2
2021/06/20 00:01:39;;;;;;;0.90;0.90;;;26.80;49.10;;;;;;5046651;28;20087;-67
2021/06/20 00:04:07;;;;;;;1.15;1.15;;;26.80;49.10;;;;;;5047792;28;20095;-66
2021/06/20 00:06:36;;;;;;;0.88;0.88;;;26.80;49.10;;;;;;5046666;28;20383;-67
2021/06/20 00:09:06;;;;;;;0.95;0.95;;;26.80;49.10;;;;;;5047592;28;20462;-67
2021/06/20 00:11:34;;;;;;;;;;;26.80;49.10;;;;;;5046787;28;20128;-67
2021/06/20 00:14:01;;;;;;;0.85;0.85;;;26.80;49.10;;;;;;5047124;28;19921;-67
2021/06/20 00:16:29;;;;;;;1.02;1.02;;;26.80;49.20;;;;;;5047283;28;20055;-67
2021/06/20 00:18:57;;;;;;;0.75;0.75;;;26.80;49.20;;;;;;5046574;28;20045;-67
2021/06/20 00:21:26;;;;;;;0.90;0.90;;;26.80;49.20;;;;;;5046721;28;20154;-67
2021/06/20 00:23:53;;;;;;;1.27;1.17;;;26.70;49.20;;;;;;5046401;28;20568;-67
2021/06/20 00:26:20;;;;;;;0.80;0.80;;;26.80;49.30;;;;;;5046479;28;20132;-67
2021/06/20 00:28:47;;;;;;;1.15;1.15;;;26.70;49.20;;;;;;5047242;28;20428;-67
2021/06/20 00:31:15;;;;;;;1.05;0.93;;;26.70;49.20;;;;;;5029044;28;20443;-67
2021/06/20 00:33:43;;;;;;;0.98;0.98;;;26.80;49.30;;;;;;5046399;28;20103;-67
2021/06/20 00:36:12;;;;;;;0.90;0.90;;;26.80;49.30;;;;;;5046039;28;20095;-66
2021/06/20 00:38:39;;;;;;;1.13;1.13;;;26.70;49.20;;;;;;5046867;28;20078;-67
2021/06/20 00:41:06;;;;;;;1.10;1.10;;;26.80;49.30;;;;;;5046435;28;20482;-67
2021/06/20 00:43:33;;;;;;;1.15;1.15;;;26.70;49.30;;;;;;5046257;28;20369;-67
2021/06/20 00:46:00;;;;;;;1.30;1.00;;;26.70;49.80;;;;;;5046732;28;20041;-67
2021/06/20 00:48:28;;;;;;;1.23;1.17;;;26.70;49.20;;;;;;5046021;28;20072;-67
2021/06/20 00:50:55;;;;;;;1.00;1.00;;;26.70;49.20;;;;;;5046512;28;20202;-67
2021/06/20 00:53:23;;;;;;;0.88;0.88;;;26.70;49.30;;;;;;5046264;28;20128;-67
2021/06/20 00:55:50;;;;;;;0.82;0.82;;;26.70;49.30;;;;;;5046173;28;20077;-67
2021/06/20 00:58:21;;;;;;;1.02;1.02;;;26.70;49.30;;;;;;5045924;28;20083;-67
2021/06/20 01:00:48;;;;;;;1.20;1.20;;;26.70;49.30;;;;;;5045962;28;20208;-67
2021/06/20 01:03:16;;;;;;;1.08;1.08;;;26.70;49.30;;;;;;5046030;28;20409;-67
2021/06/20 01:05:45;;;;;;;1.10;1.10;;;26.70;49.30;;;;;;5045363;28;20083;-67
2021/06/20 01:08:13;;;;;;;1.13;1.13;;;26.70;49.40;;;;;;5045891;28;20052;-67
2021/06/20 01:10:41;;;;;;;1.40;1.30;;;26.70;49.40;;;;;;5046175;28;20278;-67
2021/06/20 01:13:13;;;;;;;1.33;1.20;;;26.70;49.40;;;;;;5045683;28;20303;-67
2021/06/20 01:15:43;;;;;;;0.80;0.80;;;26.70;49.40;;;;;;5045771;28;20475;-67
2021/06/20 01:18:10;;;;;;;1.23;1.17;;;26.70;49.40;;;;;;5045831;28;20048;-67
2021/06/20 01:20:38;;;;;;;1.27;1.27;;;26.70;49.40;;;;;;5045778;28;20045;-67
2021/06/20 01:23:06;;;;;;;1.10;1.10;;;26.70;49.40;;;;;;5045437;28;20520;-67
2021/06/20 01:25:34;;;;;;;1.05;1.05;;;26.70;49.40;;;;;;5044656;28;20128;-67
2021/06/20 01:28:08;;;;;;;1.02;1.02;;;26.70;49.40;;;;;;5045929;28;20055;-67
2021/06/20 01:30:39;;;;;;;1.27;1.23;;;26.70;49.40;;;;;;5027983;28;20140;-69
2021/06/20 01:33:09;;;;;;;1.60;1.10;;;26.60;49.30;;;;;;5045284;28;20045;-67
2021/06/20 01:35:36;;;;;;;;;;;26.70;49.40;;;;;;5046013;28;20127;-67
2021/06/20 01:38:06;;;;;;;0.85;0.85;;;26.70;49.40;;;;;;5045322;28;20373;-67
2021/06/20 01:40:33;;;;;;;1.10;1.00;;;26.70;49.50;;;;;;5046098;28;20229;-67
2021/06/20 01:43:00;;;;;;;0.95;0.95;;;26.60;49.40;;;;;;5045410;28;20577;-67
2021/06/20 01:45:28;;;;;;;1.17;0.93;;;26.60;49.40;;;;;;5027766;28;20051;-67
2021/06/20 01:47:58;;;;;;;1.42;1.23;;;26.60;49.40;;;;;;5045283;28;20147;-67
2021/06/20 01:50:27;;;;;;;0.95;0.95;;;26.60;49.40;;;;;;5045362;28;20049;-67
2021/06/20 01:53:10;;;;;;;1.10;1.10;;;26.60;49.40;;;;;;5044809;28;20076;-67
2021/06/20 01:55:39;;;;;;;1.20;1.15;;;26.60;49.40;;;;;;5045375;28;20143;-67
2021/06/20 01:58:09;;;;;;;1.02;1.00;;;26.60;49.40;;;;;;5045170;28;20480;-67
2021/06/20 02:00:37;;;;;;;1.02;1.02;;;26.60;49.40;;;;;;5044564;28;20045;-67
2021/06/20 02:03:10;;;;;;;1.00;1.00;;;26.60;49.40;;;;;;5044809;28;20144;-67
2021/06/20 02:05:38;;;;;;;1.38;1.30;;;26.60;49.50;;;;;;5044550;28;20124;-67
2021/06/20 02:08:05;;;;;;;1.33;1.30;;;26.60;49.50;;;;;;5044905;28;20045;-67
2021/06/20 02:10:33;;;;;;;1.50;1.40;;;26.60;49.50;;;;;;5044604;28;20040;-67
2021/06/20 02:13:00;;;;;;;1.00;1.00;;;26.60;49.50;;;;;;5045095;28;20132;-67
2021/06/20 02:15:28;;;;;;;1.10;1.10;;;26.60;49.50;;;;;;5044867;28;20172;-67
2021/06/20 02:17:55;;;;;;;1.13;1.13;;;26.60;49.40;;;;;;5044719;28;20041;-67
2021/06/20 02:20:23;;;;;;;1.30;1.20;;;26.60;49.40;;;;;;5044438;28;20136;-67
2021/06/20 02:22:51;;;;;;;1.15;1.15;;;26.60;49.50;;;;;;5027370;28;20056;-67
2021/06/20 02:25:20;;;;;;;1.30;1.27;;;26.60;49.50;;;;;;5044218;28;20045;-67
2021/06/20 02:27:52;;;;;;;1.27;1.27;;;26.60;49.50;;;;;;5044403;28;20060;-67
2021/06/20 02:30:21;;;;;;;1.48;1.38;;;26.60;49.50;;;;;;5044221;28;20080;-67
2021/06/20 02:32:49;;;;;;;1.15;1.15;;;26.60;49.50;;;;;;5044574;28;20057;-68
2021/06/20 02:35:17;;;;;;;1.10;1.10;;;26.60;49.50;;;;;;5044289;28;20139;-67
2021/06/20 02:37:46;;;;;;;1.40;1.40;;;26.60;49.50;;;;;;5044015;28;20330;-67
2021/06/20 02:40:15;;;;;;;1.00;1.00;;;26.60;49.50;;;;;;5045161;28;20397;-67
2021/06/20 02:42:44;;;;;;;1.55;1.45;;;26.50;49.50;;;;;;5043554;28;20248;-67
2021/06/20 02:45:14;;;;;;;1.38;1.20;;;26.50;49.50;;;;;;5043960;28;20045;-67
2021/06/20 02:47:42;;;;;;;1.20;1.10;;;26.60;49.60;;;;;;5044636;28;20467;-67
2021/06/20 02:50:10;;;;;;;1.10;1.10;;;26.50;49.50;;;;;;5044358;28;20049;-67
2021/06/20 02:52:38;;;;;;;1.42;1.33;;;26.50;49.50;;;;;;5044673;28;20183;-67
2021/06/20 02:55:05;;;;;;;1.70;1.60;;;26.50;49.50;;;;;;5044045;28;20045;-67
2021/06/20 02:57:33;;;;;;;1.35;1.30;;;26.50;49.50;;;;;;5044643;28;20517;-67
2021/06/20 03:00:04;;;;;;;1.30;1.20;;;26.50;49.50;;;;;;5043578;28;20135;-67
2021/06/20 03:02:31;;;;;;;1.10;1.10;;;26.50;49.50;;;;;;5044354;28;20045;-67
2021/06/20 03:04:58;;;;;;;1.25;1.25;;;26.50;49.50;;;;;;5044286;28;20080;-67
2021/06/20 03:07:26;;;;;;;1.58;1.02;;;26.50;49.50;;;;;;5044506;28;20137;-67
2021/06/20 03:09:54;;;;;;;1.35;1.25;;;26.60;49.60;;;;;;5043738;28;20514;-67
2021/06/20 03:12:21;;;;;;;1.48;1.38;;;26.50;49.50;;;;;;5044167;28;20502;-67
2021/06/20 03:14:48;;;;;;;1.40;1.30;;;26.50;49.40;;;;;;5043896;28;20071;-67
2021/06/20 03:17:17;;;;;;;1.20;1.20;;;26.60;49.50;;;;;;5044627;28;20111;-67
2021/06/20 03:19:45;;;;;;;2.38;1.15;;;26.60;49.50;;;;;;5044206;28;20358;-67
2021/06/20 03:22:13;;;;;;;1.13;1.08;;;26.50;49.40;;;;;;5044419;28;20053;-67
2021/06/20 03:24:43;;;;;;;1.60;1.50;;;26.60;49.40;;;;;;5044301;28;20045;-67
2021/06/20 03:27:11;;;;;;;0.95;0.95;;;26.60;49.40;;;;;;5044022;28;20068;-67
2021/06/20 03:29:39;;;;;;;1.20;1.20;;;26.60;49.40;;;;;;5026766;28;20087;-67
2021/06/20 03:32:07;;;;;;;1.38;1.27;;;26.60;49.40;;;;;;5044480;28;20124;-67
2021/06/20 03:34:34;;;;;;;1.48;1.40;;;26.60;49.40;;;;;;5044589;28;20068;-67
2021/06/20 03:37:02;;;;;;;1.38;1.27;;;26.60;49.30;;;;;;5044256;28;20297;-67
2021/06/20 03:39:30;;;;;;;1.33;1.23;;;26.60;49.30;;;;;;5043861;28;20489;-67
2021/06/20 03:41:58;;;;;;;1.40;1.30;;;26.60;49.20;;;;;;5043937;28;20529;-67
2021/06/20 03:44:25;;;;;;;1.33;1.17;;;26.60;49.20;;;;;;5043890;28;20477;-67
2021/06/20 03:46:52;;;;;;;1.20;1.20;;;26.70;49.30;;;;;;5044136;28;20041;-67
2021/06/20 03:49:19;;;;;;;1.60;1.50;;;26.70;49.20;;;;;;5047323;28;20079;-67
2021/06/20 03:51:47;;;;;;;1.00;1.00;;;26.70;49.10;;;;;;5047090;28;20331;-67
2021/06/20 03:54:14;;;;;;;0.90;0.90;;;26.70;49.10;;;;;;5047329;28;20045;-67
2021/06/20 03:56:41;;;;;;;1.50;1.45;;;26.80;49.10;;;;;;5047010;28;20502;-67
2021/06/20 03:59:09;;;;;;;1.25;1.15;;;26.80;49.00;;;;;;5047420;28;20075;-67
2021/06/20 04:01:36;;;;;;;1.67;1.58;;;26.80;49.00;;;;;;5046996;28;20469;-67
2021/06/20 04:04:05;;;;;;;1.60;1.50;;;26.80;49.00;;;;;;5047869;28;20191;-67
2021/06/20 04:06:34;;;;;;;1.00;1.00;;;26.80;48.80;;;;;;5046431;28;20135;-67
2021/06/20 04:09:01;;;;;;;1.20;1.20;;;26.80;48.70;;;;;;5047464;28;20306;-67
2021/06/20 04:11:28;;;;;;;1.58;1.48;;;26.90;48.70;;;;;;5045932;28;20072;-67
2021/06/20 04:13:56;;;;;;;1.48;1.17;;;26.90;48.70;;;;;;5046984;28;20114;-67
2021/06/20 04:16:23;;;;;;;1.15;1.15;;;26.90;48.50;;;;;;5046589;28;20041;-67
2021/06/20 04:18:50;;;;;;;1.13;1.08;;;26.90;48.50;;;;;;5047219;28;20076;-67
2021/06/20 04:21:17;;;;;;;1.08;1.08;;;27.00;48.50;;;;;;5045257;28;20123;-67
2021/06/20 04:23:45;;;;;;;1.60;1.50;;;27.00;48.40;;;;;;5047300;28;20262;-67
2021/06/20 04:26:12;;;;;;;1.63;1.52;;;27.00;48.40;;;;;;5046429;28;20072;-67
2021/06/20 04:28:40;;;;;;;1.60;1.50;;;27.00;48.30;;;;;;5047055;28;20488;-67
2021/06/20 04:31:08;;;;;;;1.30;1.20;;;27.10;48.30;;;;;;5046450;28;20076;-68
2021/06/20 04:33:36;;;;;;;1.05;1.05;;;27.10;48.20;;;;;;5046941;28;20130;-67
2021/06/20 04:36:03;;;;;;;1.27;1.20;;;27.10;48.20;;;;;;5046262;28;20099;-67
2021/06/20 04:38:30;;;;;;;1.02;1.00;;;27.10;48.10;;;;;;5047110;28;20398;-67
2021/06/20 04:41:03;;;;;;;1.50;1.40;;;27.20;48.10;;;;;;5046862;28;20049;-67
2021/06/20 04:43:41;;;;;;;1.65;1.00;;;27.20;48.60;;;;;;5046292;28;20707;-67
2021/06/20 04:46:31;;;;;;;0.73;0.73;;;27.20;48.00;;;;;;5045799;28;20308;-70
2021/06/20 04:49:01;;;;;;;1.00;1.00;;;27.20;47.90;;;;;;5047313;28;20048;-67
2021/06/20 04:51:30;;;;;;;;;;;27.30;47.90;;;;;;5046372;28;20045;-67
2021/06/20 04:53:57;;;;;;;1.05;1.05;;;27.30;47.90;;;;;;5046863;28;20305;-67
2021/06/20 04:56:25;;;;;;;1.30;1.30;;;27.30;47.80;;;;;;5045504;28;20080;-67
2021/06/20 04:58:53;;;;;;;1.20;1.20;;;27.30;47.70;;;;;;5046021;28;20447;-67
2021/06/20 05:01:20;;;;;;;1.20;1.10;;;27.30;47.70;;;;;;5045857;28;20045;-67
2021/06/20 05:03:48;;;;;;;1.48;1.40;;;27.40;47.70;;;;;;5046331;28;20135;-67
2021/06/20 05:06:16;;;;;;;1.02;1.02;;;27.40;47.60;;;;;;5046529;28;20072;-67
2021/06/20 05:08:43;;;;;;;0.90;0.90;;;27.40;47.60;;;;;;5045911;28;20076;-67
2021/06/20 05:11:11;;;;;;;1.10;1.10;;;27.40;47.60;;;;;;5046142;28;20516;-67
2021/06/20 05:13:38;;;;;;;1.50;1.40;;;27.40;47.60;;;;;;5045921;28;20143;-67
2021/06/20 05:16:06;;;;;;;1.30;1.20;;;27.40;47.50;;;;;;5046343;28;20140;-67
2021/06/20 05:18:34;;;;;;;1.20;1.20;;;27.50;47.60;;;;;;5045679;28;20734;-67
2021/06/20 05:21:01;;;;;;;1.00;1.00;;;27.50;47.50;;;;;;5045536;28;20574;-67
2021/06/20 05:23:28;;;;;;;1.27;1.27;;;27.50;47.40;;;;;;5046003;28;20063;-67
2021/06/20 05:25:55;;;;;;;1.10;1.10;;;27.50;47.40;;;;;;5045378;28;20128;-67
2021/06/20 05:28:23;;;;;;;0.95;0.95;;;27.50;47.40;;;;;;5045535;28;20564;-67
2021/06/20 05:30:50;;;;;;;1.40;1.30;;;27.50;47.30;;;;;;5045675;28;20132;-67
2021/06/20 05:33:18;;;;;;;1.00;1.00;;;27.60;47.40;;;;;;5046219;28;20198;-67
2021/06/20 05:35:47;;;;;;;1.13;1.10;;;27.60;47.30;;;;;;5028089;28;20048;-67
2021/06/20 05:38:14;;;;;;;2.75;1.23;;;27.60;47.80;;;;;;5045425;28;20064;-67
2021/06/20 05:40:42;;;;;;;1.10;1.10;;;27.60;47.20;;;;;;5045682;28;20621;-67
2021/06/20 05:43:10;;;;;;;1.20;1.17;;;27.60;47.20;;;;;;5045542;28;20368;-67
2021/06/20 05:45:37;;;;;;;1.08;1.08;;;27.60;47.20;;;;;;5045551;28;20041;-67
2021/06/20 05:48:05;;;;;;;0.98;0.98;;;27.70;47.20;;;;;;5045426;28;20045;-67
2021/06/20 05:50:34;;;;;;;1.02;1.02;;;27.70;47.20;;;;;;5045530;28;20049;-67
2021/06/20 05:53:01;;;;;;;1.55;1.45;;;27.70;47.70;;;;;;5027337;28;20139;-67
2021/06/20 05:55:28;;;;;;;1.90;1.10;;;27.70;47.10;;;;;;5045069;28;20072;-67
2021/06/20 05:57:56;;;;;;;1.05;1.05;;;27.70;47.00;;;;;;5044681;28;20045;-67
2021/06/20 06:00:23;;;;;;;0.88;0.88;;;27.80;47.00;;;;;;5027684;28;20045;-67
2021/06/20 06:02:50;;;;;;;1.10;1.10;;;27.80;47.00;;;;;;5045299;28;20060;-67
2021/06/20 06:05:17;;;;;;;1.20;1.20;;;27.80;47.00;;;;;;5045118;28;20049;-67
2021/06/20 06:07:45;;;;;;;1.27;1.17;;;27.80;46.90;;;;;;5045151;28;20092;-67
2021/06/20 06:10:24;;;;;;;0.90;0.90;;;27.80;46.90;;;;;;5045050;28;20044;-67
2021/06/20 06:12:52;;;;;;;1.33;1.33;;;27.80;46.90;;;;;;5045016;28;20048;-67
2021/06/20 06:15:19;;;;;;;1.00;1.00;;;27.80;46.80;;;;;;5044857;28;20565;-67
2021/06/20 06:17:49;;;;;;;1.00;1.00;;;27.90;46.90;;;;;;5044772;28;20049;-67
2021/06/20 06:20:17;;;;;;;1.15;1.15;;;27.90;46.90;;;;;;5044583;28;20040;-67
2021/06/20 06:22:45;;;;;;;1.10;0.90;;;27.90;46.90;;;;;;5044998;28;20073;-67
2021/06/20 06:25:13;;;;;;;1.40;1.30;;;27.90;46.80;;;;;;5044760;28;20049;-67
2021/06/20 06:27:41;;;;;;;1.00;1.00;;;27.90;46.80;;;;;;5045097;28;20045;-67
2021/06/20 06:30:10;;;;;;;1.05;1.05;;;27.90;46.80;;;;;;5044694;28;20517;-67
2021/06/20 06:32:38;;;;;;;1.20;1.20;;;28.00;46.80;;;;;;5044623;28;20071;-67
2021/06/20 06:35:06;;;;;;;1.05;1.02;;;28.00;46.80;;;;;;5044860;28;20409;-67
2021/06/20 06:37:34;;;;;;;1.00;1.00;;;28.00;46.80;;;;;;5044800;28;20590;-67
2021/06/20 06:40:04;;;;;;;1.60;1.50;;;28.00;47.30;;;;;;5044710;28;20448;-67
2021/06/20 06:42:31;;;;;;;1.00;1.00;;;28.00;46.80;;;;;;5044421;28;20305;-67
2021/06/20 06:44:58;;;;;;;1.38;1.27;;;28.10;46.80;;;;;;5044158;28;20071;-67
2021/06/20 06:47:29;;;;;;;1.05;1.05;;;28.00;46.70;;;;;;5044603;28;20090;-68
2021/06/20 06:52:23;;;;;;;1.00;1.00;;;28.00;46.70;;;;;;5044119;28;20128;-67
2021/06/20 06:54:51;;;;;;;1.25;1.20;;;28.00;46.70;;;;;;5044503;28;20049;-67
2021/06/20 06:57:20;;;;;;;1.10;1.10;;;28.00;46.70;;;;;;5044370;28;20079;-67
2021/06/20 06:59:48;;;;;;;1.00;1.00;;;28.10;46.70;;;;;;5044524;28;20426;-67
2021/06/20 07:02:16;;;;;;;0.98;0.98;;;28.10;46.70;;;;;;5044384;28;20302;-67
2021/06/20 07:04:43;;;;;;;1.10;1.10;;;28.10;46.70;;;;;;5044257;28;20059;-67
2021/06/20 07:07:12;;;;;;;0.90;0.90;;;28.10;46.70;;;;;;5044381;28;20059;-67
2021/06/20 07:09:39;;;;;;;1.08;1.05;;;28.10;46.70;;;;;;5043906;28;20103;-67
2021/06/20 07:12:07;;;;;;;1.10;1.10;;;28.10;46.70;;;;;;5044364;28;20048;-67
2021/06/20 07:14:36;;;;;;;1.15;1.15;;;28.10;46.80;;;;;;5043822;28;20041;-67
2021/06/20 07:17:07;;;;;;;1.08;1.08;;;28.00;46.90;;;;;;5044555;28;20053;-67
2021/06/20 07:19:34;;;;;;;0.80;0.80;;;27.90;47.20;;;;;;5043964;28;20123;-68
2021/06/20 07:22:03;;;;;;;1.00;1.00;;;27.70;47.30;;;;;;5044277;28;20124;-67
2021/06/20 07:24:30;;;;;;;0.95;0.95;;;27.70;47.50;;;;;;5047787;28;20044;-67
2021/06/20 07:26:57;;;;;;;1.15;1.15;;;27.60;47.90;;;;;;5047967;28;20698;-67
2021/06/20 07:29:24;;;;;;;0.90;0.90;;;27.40;48.10;;;;;;5047916;28;20127;-67
2021/06/20 07:31:52;;;;;;;1.15;1.15;;;27.30;48.40;;;;;;5048186;28;20063;-66
2021/06/20 07:34:19;;;;;;;1.38;1.20;;;27.10;48.70;;;;;;5047273;28;20049;-67
2021/06/20 07:36:46;;;;;;;1.40;1.30;;;26.90;49.00;;;;;;5048403;28;20059;-67
2021/06/20 07:39:14;;;;;;;1.30;1.27;;;26.80;49.30;;;;;;5047795;28;20055;-67
2021/06/20 07:41:41;;;;;;;1.23;1.23;;;26.60;49.60;;;;;;5030263;28;20131;-67
2021/06/20 07:44:09;;;;;;;1.05;1.05;;;26.40;49.90;;;;;;5047731;28;20045;-67
2021/06/20 07:46:36;;;;;;;1.23;1.23;;;26.30;50.30;;;;;;5047611;28;20482;-70
2021/06/20 07:49:03;;;;;;;1.15;1.15;;;26.20;50.70;;;;;;5047912;28;20191;-67
2021/06/20 07:51:30;;;;;;;1.10;1.10;;;26.00;50.90;;;;;;5046939;28;20047;-67
2021/06/20 07:53:57;;;;;;;1.00;1.00;;;25.90;51.10;;;;;;5047770;28;20057;-67
2021/06/20 07:56:25;;;;;;;1.50;1.40;;;25.80;51.40;;;;;;5047405;28;20127;-67
2021/06/20 07:58:56;;;;;;;1.42;1.27;;;25.70;51.50;;;;;;5047672;28;20131;-67
2021/06/20 08:01:24;;;;;;;1.33;1.33;;;25.60;51.70;;;;;;5029292;28;20440;-67
2021/06/20 08:03:52;;;;;;;1.13;1.13;;;25.60;51.90;;;;;;5047258;28;20091;-67
2021/06/20 08:06:22;;;;;;;1.13;1.13;;;25.60;52.00;;;;;;5047068;28;20064;-66
2021/06/20 08:08:55;;;;;;;1.45;1.35;;;25.50;52.00;;;;;;5047334;28;20080;-67
2021/06/20 08:11:27;;;;;;;2.38;1.00;;;25.40;52.30;;;;;;5047064;28;20041;-67
2021/06/20 08:13:57;;;;;;;1.30;1.20;;;25.40;52.40;;;;;;5047437;28;20045;-67
2021/06/20 08:16:25;;;;;;;1.10;1.10;;;25.40;52.60;;;;;;5047448;28;20672;-67
2021/06/20 08:18:53;;;;;;;1.15;1.15;;;25.30;52.60;;;;;;5047435;28;20136;-67
2021/06/20 08:21:20;;;;;;;1.10;1.10;;;25.30;52.70;;;;;;5046029;28;20478;-67
2021/06/20 08:23:49;;;;;;;1.38;1.27;;;25.20;52.70;;;;;;5047530;28;20136;-67
2021/06/20 08:26:17;;;;;;;1.23;1.23;;;25.20;52.90;;;;;;5046263;28;20045;-67
2021/06/20 08:28:44;;;;;;;1.15;1.15;;;25.20;53.00;;;;;;5047478;28;20140;-67
2021/06/20 08:31:11;;;;;;;1.13;1.10;;;25.20;53.00;;;;;;5046109;28;20048;-67
2021/06/20 08:33:39;;;;;;;0.93;0.93;;;25.10;53.00;;;;;;5046230;28;20053;-67
2021/06/20 08:36:06;;;;;;;1.20;1.20;;;25.10;52.90;;;;;;5045041;28;20387;-67
2021/06/20 08:38:33;;;;;;;1.45;1.40;;;25.10;52.90;;;;;;5046715;28;20124;-67
2021/06/20 08:41:03;;;;;;;1.30;1.30;;;25.10;52.90;;;;;;5046700;28;20438;-67
2021/06/20 08:43:31;;;;;;;1.45;1.38;;;25.10;53.00;;;;;;5046548;28;20516;-67
2021/06/20 08:45:58;;;;;;;1.00;1.00;;;25.10;53.00;;;;;;5046517;28;20155;-67
2021/06/20 08:48:26;;;;;;;1.23;1.23;;;25.00;53.00;;;;;;5046761;28;20041;-67
2021/06/20 08:50:53;;;;;;;1.50;1.40;;;25.00;53.00;;;;;;5044820;28;20045;-68
2021/06/20 08:53:21;;;;;;;1.20;1.20;;;25.00;53.10;;;;;;5046679;28;20674;-67
2021/06/20 08:55:50;;;;;;;1.15;1.15;;;25.00;53.10;;;;;;5046333;28;20134;-68
2021/06/20 08:58:27;;;;;;;1.40;1.40;;;24.90;53.10;;;;;;5046552;28;20131;-67
2021/06/20 09:00:58;;;;;;;1.70;1.60;;;25.00;53.30;;;;;;5045924;28;20080;-67
2021/06/20 09:03:41;;;;;;;1.15;1.15;;;25.00;53.40;;;;;;5046131;28;20139;-67
2021/06/20 09:06:17;;;;;;;1.08;1.08;;;25.00;53.30;;;;;;5046072;28;20128;-67
2021/06/20 09:08:48;;;;;;;0.80;0.80;;;25.00;53.30;;;;;;5046096;28;20052;-67
2021/06/20 09:11:39;;;;;;;1.00;1.00;;;25.10;53.30;;;;;;5045578;28;20056;-67
2021/06/20 09:14:10;;;;;;;1.00;1.00;;;25.10;53.30;;;;;;5046521;28;20045;-67
2021/06/20 09:16:52;;;;;;;1.25;1.25;;;25.10;53.20;;;;;;5045680;28;20418;-69
2021/06/20 09:19:34;;;;;;;1.25;1.15;;;25.10;53.10;;;;;;5046559;28;20156;-69
2021/06/20 09:22:06;;;;;;;0.98;0.98;;;25.10;53.10;;;;;;5045571;28;20044;-70
2021/06/20 09:24:33;;;;;;;1.15;1.15;;;25.10;53.50;;;;;;5045845;28;20051;-69
2021/06/20 09:27:01;;;;;;;1.10;1.10;;;25.10;52.90;;;;;;5045137;28;20318;-70
2021/06/20 09:29:34;;;;;;;1.30;1.20;;;25.10;52.90;;;;;;5045638;28;20140;-69
2021/06/20 09:32:04;;;;;;;1.40;1.40;;;25.10;52.90;;;;;;5045566;28;20087;-70
2021/06/20 09:34:48;;;;;;;1.50;1.40;;;25.10;53.00;;;;;;5045944;28;20414;-70
2021/06/20 09:37:19;;;;;;;1.05;1.05;;;25.10;53.00;;;;;;5045906;28;20059;-69
2021/06/20 09:39:47;;;;;;;1.20;1.20;;;25.10;53.00;;;;;;5045625;28;20585;-69
2021/06/20 09:42:16;;;;;;;1.40;1.40;;;25.10;53.10;;;;;;5045452;28;20049;-70
2021/06/20 09:44:49;;;;;;;1.17;1.17;;;25.10;53.20;;;;;;5045147;28;20147;-70
2021/06/20 09:47:18;;;;;;;0.82;0.82;;;25.00;53.30;;;;;;5045149;28;20052;-70
2021/06/20 09:49:49;;;;;;;1.00;1.00;;;25.00;53.30;;;;;;5045639;28;20045;-69
2021/06/20 09:52:35;;;;;;;0.90;0.90;;;25.00;53.30;;;;;;5045161;28;20139;-70
2021/06/20 09:55:10;;;;;;;1.10;1.10;;;25.00;53.30;;;;;;5045685;28;20132;-69
2021/06/20 09:57:43;;;;;;;1.00;1.00;;;25.00;53.40;;;;;;5045584;28;20395;-69
2021/06/20 10:00:13;;;;;;;1.15;1.15;;;25.00;53.40;;;;;;5045207;28;20128;-70
2021/06/20 10:02:41;;;;;;;1.00;1.00;;;25.00;53.40;;;;;;5045020;28;20044;-70
2021/06/20 10:05:10;;;;;;;0.90;0.90;;;24.90;53.30;;;;;;5045360;28;20103;-69
2021/06/20 10:07:38;;;;;;;1.50;1.40;;;24.90;53.40;;;;;;5044767;28;20084;-69
2021/06/20 10:10:07;;;;;;;1.08;1.08;;;24.90;53.30;;;;;;5044908;28;20088;-70
2021/06/20 10:12:35;;;;;;;1.23;1.23;;;24.90;53.40;;;;;;5044971;28;20124;-69
2021/06/20 10:15:12;;;;;;;0.98;0.82;;;24.90;53.40;;;;;;5044876;28;20084;-70
2021/06/20 10:17:45;;;;;;;1.60;1.50;;;24.90;53.50;;;;;;5044942;28;20141;-69
2021/06/20 10:20:14;;;;;;;0.80;0.80;;;24.90;53.50;;;;;;5044770;28;20514;-70
2021/06/20 10:22:49;;;;;;;1.10;1.00;;;24.90;53.40;;;;;;5044349;28;20049;-69
2021/06/20 10:25:30;;;;;;;1.45;1.35;;;24.90;53.60;;;;;;5044901;28;20428;-69
2021/06/20 10:28:02;;;;;;;1.00;1.00;;;24.90;53.50;;;;;;5044453;28;20131;-69
2021/06/20 10:30:34;;;;;;;1.00;0.95;;;24.90;53.50;;;;;;5044823;28;20140;-69
2021/06/20 10:33:09;;;;;;;1.00;1.00;;;25.00;53.40;;;;;;5044826;28;20102;-69
2021/06/20 10:35:36;;;;;;;1.10;1.10;;;25.00;53.40;;;;;;5044822;28;20129;-69
2021/06/20 10:38:04;;;;;;;0.90;0.90;;;25.10;53.30;;;;;;5044424;28;20080;-73
2021/06/20 10:40:42;;;;;;;1.25;1.25;;;25.10;53.00;;;;;;5044605;28;20083;-69
2021/06/20 10:43:18;;;;;;;1.00;1.00;;;25.20;52.80;;;;;;5044380;28;20111;-70
2021/06/20 10:45:46;;;;;;;1.13;1.13;;;25.20;52.70;;;;;;5044728;28;20060;-69
2021/06/20 10:48:28;;;;;;;0.90;0.90;;;25.20;52.70;;;;;;5044025;28;20045;-69
2021/06/20 10:50:57;;;;;;;1.23;1.20;;;25.20;52.70;;;;;;5044478;28;20063;-69
2021/06/20 10:53:26;;;;;;;1.07;1.07;;;25.20;52.60;;;;;;5044455;28;20124;-69
2021/06/20 10:55:56;;;;;;;1.00;1.00;;;25.20;52.50;;;;;;5044077;28;20077;-69
2021/06/20 10:58:28;;;;;;;1.10;1.10;;;25.20;52.60;;;;;;5029248;28;20163;-69
2021/06/20 11:01:13;;;;;;;1.00;1.00;;;25.20;52.70;;;;;;5048929;28;20577;-69
2021/06/20 11:04:01;;;;;;;1.23;1.00;;;25.20;52.70;;;;;;5047984;28;20399;-69
2021/06/20 11:06:28;;;;;;;1.08;1.08;;;25.10;52.70;;;;;;5048574;28;20045;-69
2021/06/20 11:09:01;;;;;;;1.08;1.08;;;25.10;52.80;;;;;;5048584;28;20059;-69
2021/06/20 11:11:47;;;;;;;1.08;1.08;;;25.10;53.00;;;;;;5048357;28;20387;-69
2021/06/20 11:14:14;;;;;;;0.90;0.90;;;25.10;53.00;;;;;;5048093;28;20107;-70
2021/06/20 11:16:46;;;;;;;1.13;1.13;;;25.10;53.00;;;;;;5048495;28;20049;-69
2021/06/20 11:19:26;;;;;;;1.10;1.10;;;25.10;53.00;;;;;;5048336;28;20508;-70
2021/06/20 11:22:03;;;;;;;0.98;0.98;;;25.20;52.80;;;;;;5048061;28;20048;-69
2021/06/20 11:24:36;;;;;;;1.10;1.00;;;25.20;52.60;;;;;;5048102;28;20132;-69
2021/06/20 11:27:11;;;;;;;1.40;1.10;;;25.20;52.50;;;;;;5047901;28;20106;-69
2021/06/20 11:29:51;;;;;;;1.20;1.10;;;25.30;52.40;;;;;;5048034;28;20044;-69
2021/06/20 11:32:33;;;;;;;1.00;1.00;;;25.20;52.30;;;;;;5047685;28;20067;-69
2021/06/20 11:35:08;;;;;;;0.80;0.80;;;25.20;52.40;;;;;;5048029;28;20102;-69
2021/06/20 11:37:49;;;;;;;1.15;1.10;;;25.20;52.50;;;;;;5048096;28;20102;-69
2021/06/20 11:40:20;;;;;;;1.00;1.00;;;25.20;52.50;;;;;;5047722;28;20059;-70
2021/06/20 11:42:52;;;;;;;1.10;1.10;;;25.20;52.60;;;;;;5047435;28;20073;-69
2021/06/20 11:45:22;;;;;;;1.00;1.00;;;25.10;52.60;;;;;;5047317;28;20048;-69
2021/06/20 11:47:53;;;;;;;0.98;0.98;;;25.10;52.70;;;;;;5047444;28;20364;-69
2021/06/20 11:50:27;;;;;;;1.00;1.00;;;25.10;52.80;;;;;;5047994;28;20474;-69
2021/06/20 11:53:06;;;;;;;0.88;0.88;;;25.10;52.90;;;;;;5047425;28;20049;-69
2021/06/20 11:55:39;;;;;;;0.90;0.90;;;25.10;52.80;;;;;;5047410;28;20051;-69
2021/06/20 11:58:09;;;;;;;0.88;0.88;;;25.10;52.70;;;;;;5047556;28;20059;-69
2021/06/20 12:00:39;;;;;;;1.00;1.00;;;25.10;52.80;;;;;;5047589;28;20671;-69
2021/06/20 12:03:12;;;;;;;1.05;1.05;;;25.10;52.80;;;;;;5030291;28;20051;-69
2021/06/20 12:05:46;;;;;;;1.10;1.10;;;25.20;52.80;;;;;;5046800;28;20045;-69
2021/06/20 12:08:13;;;;;;;2.35;1.00;;;25.20;52.70;;;;;;5046928;28;20037;-69
2021/06/20 12:10:46;;;;;;;2.35;1.05;;;25.20;52.60;;;;;;5046989;28;20517;-69
2021/06/20 12:13:15;;;;;;;1.10;1.10;;;25.30;52.50;;;;;;5047905;28;20136;-69
2021/06/20 12:15:43;;;;;;;1.05;1.05;;;25.30;52.40;;;;;;5046843;28;20053;-69
2021/06/20 12:18:12;;;;;;;1.05;1.05;;;25.30;52.40;;;;;;5047322;28;20103;-69
2021/06/20 12:20:52;;;;;;;1.15;1.15;;;25.40;52.40;;;;;;5046917;28;20127;-69
2021/06/20 12:23:25;;;;;;;1.30;1.20;;;25.40;52.30;;;;;;5046725;28;20099;-69
2021/06/20 12:25:53;;;;;;;1.50;1.40;;;25.40;52.30;;;;;;5045476;28;20395;-69
2021/06/20 12:28:21;;;;;;;0.80;0.80;;;25.40;52.30;;;;;;5046697;28;20128;-69
2021/06/20 12:30:50;;;;;;;1.25;1.25;;;25.40;52.30;;;;;;5046767;28;20585;-69
2021/06/20 12:33:20;;;;;;;1.30;1.20;;;25.40;52.20;;;;;;5046850;28;20072;-69
2021/06/20 12:35:59;;;;;;;0.75;0.75;;;25.40;52.20;;;;;;5046641;28;20087;-69
2021/06/20 12:38:29;;;;;;;1.20;1.10;;;25.40;52.30;;;;;;5046829;28;20045;-69
2021/06/20 12:40:57;;;;;;;0.80;0.80;;;25.40;52.30;;;;;;5047030;28;20044;-69
2021/06/20 12:43:26;;;;;;;1.33;1.33;;;25.40;52.30;;;;;;5046773;28;20049;-69
2021/06/20 12:46:01;;;;;;;1.00;1.00;;;25.40;52.30;;;;;;5028477;28;20049;-69
2021/06/20 12:48:35;;;;;;;1.25;1.20;;;25.40;52.20;;;;;;5046518;28;20099;-69
2021/06/20 12:51:02;;;;;;;1.30;1.20;;;25.40;52.30;;;;;;5046260;28;20077;-69
2021/06/20 12:53:32;;;;;;;1.50;1.20;;;25.40;52.40;;;;;;5046664;28;20502;-69
2021/06/20 12:56:01;;;;;;;1.13;1.13;;;25.40;52.40;;;;;;5046373;28;20107;-69
2021/06/20 12:58:28;;;;;;;1.27;1.27;;;25.40;52.40;;;;;;5046607;28;20456;-69
2021/06/20 13:01:01;;;;;;;0.85;0.85;;;25.40;52.50;;;;;;5046720;28;20454;-69
2021/06/20 13:03:30;;;;;;;1.73;1.00;;;25.40;52.50;;;;;;5046246;28;20060;-70